Time;durP1;ratioP1;P1;durP2;ratioP2;P2;SDS_P1;SDS_P2;PMS_P1;PMS_P2;Temp;Humidity;BMP_temperature;BMP_pressure;BME280_temperature;BME280_humidity;BME280_pressure;Samples;Min_cycle;Max_cycle;Signal;HPM_P1;HPM_P2
2022/08/01 00:01:34;;;;;;;1.02;1.02;;;19.50;6.50;;;;;;5109269;27;34266;-77
2022/08/01 00:04:01;;;;;;;1.98;0.82;;;19.50;6.60;;;;;;5137828;27;34134;-77
2022/08/01 00:06:28;;;;;;;0.93;0.88;;;19.50;6.60;;;;;;5104007;28;34073;-78
2022/08/01 00:08:54;;;;;;;0.80;0.80;;;19.50;6.70;;;;;;5120661;27;35582;-77
2022/08/01 00:11:20;;;;;;;2.55;1.02;;;19.50;6.80;;;;;;5137876;27;34129;-77
2022/08/01 00:13:47;;;;;;;1.95;1.05;;;19.50;7.40;;;;;;5103574;28;34159;-77
2022/08/01 00:16:12;;;;;;;1.75;1.02;;;19.40;6.90;;;;;;5103777;28;34153;-77
2022/08/01 00:18:39;;;;;;;1.27;0.90;;;19.40;7.10;;;;;;5119601;27;35584;-77
2022/08/01 00:21:05;;;;;;;1.08;0.77;;;19.40;7.10;;;;;;5125734;27;34247;-77
2022/08/01 00:23:31;;;;;;;0.90;0.90;;;19.30;7.20;;;;;;5083030;28;34108;-78
2022/08/01 00:25:57;;;;;;;1.45;1.02;;;19.30;7.30;;;;;;5117038;27;34023;-77
2022/08/01 00:28:23;;;;;;;2.88;1.00;;;19.30;7.40;;;;;;5083737;28;34872;-77
2022/08/01 00:30:49;;;;;;;0.77;0.75;;;19.30;7.40;;;;;;5091003;27;34241;-77
2022/08/01 00:33:15;;;;;;;2.90;1.05;;;19.20;7.50;;;;;;5085794;28;34372;-77
2022/08/01 00:35:41;;;;;;;1.85;0.90;;;19.20;7.60;;;;;;5104397;27;33927;-77
2022/08/01 00:38:07;;;;;;;1.23;0.75;;;19.10;7.60;;;;;;5136951;27;36589;-77
2022/08/01 00:40:33;;;;;;;0.60;0.60;;;19.10;7.80;;;;;;5137702;27;34327;-77
2022/08/01 00:42:59;;;;;;;0.80;0.80;;;19.10;7.90;;;;;;5102511;28;34154;-78
2022/08/01 00:45:25;;;;;;;1.42;0.95;;;19.00;7.90;;;;;;5090484;28;34087;-77
2022/08/01 00:47:51;;;;;;;0.85;0.82;;;19.00;8.00;;;;;;5082389;28;35837;-77
2022/08/01 00:50:17;;;;;;;1.85;0.77;;;19.00;8.00;;;;;;5083520;28;34056;-77
2022/08/01 00:52:43;;;;;;;1.67;0.88;;;18.90;8.10;;;;;;5094807;27;34419;-77
2022/08/01 00:55:12;;;;;;;0.80;0.80;;;18.90;8.20;;;;;;5130617;27;34563;-77
2022/08/01 00:57:39;;;;;;;3.58;1.00;;;18.90;8.20;;;;;;5082733;28;36632;-77
2022/08/01 01:00:06;;;;;;;1.38;0.90;;;18.90;8.20;;;;;;5065588;28;34471;-77
2022/08/01 01:02:34;;;;;;;1.95;0.85;;;18.80;8.20;;;;;;5103607;28;34138;-77
2022/08/01 01:05:00;;;;;;;0.93;0.90;;;18.80;8.30;;;;;;5136497;27;34290;-77
2022/08/01 01:07:50;;;;;;;1.13;0.98;;;18.70;8.30;;;;;;5118800;27;34728;-77
2022/08/01 01:10:35;;;;;;;0.63;0.63;;;18.70;10.70;;;;;;5123584;27;34085;-77
2022/08/01 01:13:06;;;;;;;0.80;0.80;;;18.60;10.80;;;;;;5117169;27;34173;-77
2022/08/01 01:15:41;;;;;;;0.77;0.70;;;18.60;9.20;;;;;;5120414;27;34509;-77
2022/08/01 01:18:17;;;;;;;0.60;0.60;;;18.60;9.30;;;;;;5102955;28;34994;-77
2022/08/01 01:20:49;;;;;;;0.60;0.60;;;18.50;9.70;;;;;;5093423;28;34188;-77
2022/08/01 01:23:39;;;;;;;1.30;0.90;;;18.50;8.90;;;;;;5106815;27;34106;-77
2022/08/01 01:26:35;;;;;;;0.77;0.70;;;18.40;10.10;;;;;;5122458;27;34482;-77
2022/08/01 01:29:10;;;;;;;1.20;0.88;;;18.40;11.10;;;;;;5122300;27;35972;-77
2022/08/01 01:31:43;;;;;;;0.60;0.60;;;18.40;9.40;;;;;;5124072;27;34025;-77
2022/08/01 01:34:13;;;;;;;0.68;0.68;;;18.40;9.60;;;;;;5088298;28;34243;-77
2022/08/01 01:36:42;;;;;;;0.70;0.70;;;18.30;9.30;;;;;;5085747;28;34484;-78
2022/08/01 01:39:08;;;;;;;0.60;0.52;;;18.30;8.90;;;;;;5136642;27;36462;-77
2022/08/01 01:41:36;;;;;;;0.50;0.50;;;18.20;8.80;;;;;;5114064;27;34080;-77
2022/08/01 01:44:04;;;;;;;0.70;0.70;;;18.20;9.10;;;;;;5101811;28;34251;-77
2022/08/01 01:46:32;;;;;;;1.33;1.20;;;18.10;9.10;;;;;;5119631;27;34336;-77
2022/08/01 01:48:59;;;;;;;1.52;1.30;;;18.10;9.70;;;;;;5086530;28;34216;-77
2022/08/01 01:51:28;;;;;;;1.00;0.65;;;18.10;9.20;;;;;;5101993;28;34289;-77
2022/08/01 01:53:56;;;;;;;1.88;0.90;;;18.00;9.50;;;;;;5103789;27;34182;-77
2022/08/01 01:56:24;;;;;;;0.65;0.50;;;18.00;9.40;;;;;;5110480;27;34562;-77
2022/08/01 01:58:55;;;;;;;1.90;0.68;;;18.00;9.50;;;;;;5108074;27;34333;-77
2022/08/01 02:01:25;;;;;;;1.73;0.70;;;18.00;10.10;;;;;;5088792;28;34375;-77
2022/08/01 02:03:53;;;;;;;1.00;0.63;;;17.90;9.90;;;;;;5109449;27;34173;-77
2022/08/01 02:06:20;;;;;;;0.65;0.65;;;17.90;9.60;;;;;;5126448;27;34120;-77
2022/08/01 02:08:47;;;;;;;0.85;0.57;;;17.80;9.60;;;;;;5115045;27;35451;-78
2022/08/01 02:11:21;;;;;;;0.55;0.55;;;17.80;9.80;;;;;;5099165;27;34244;-77
2022/08/01 02:13:59;;;;;;;0.60;0.60;;;17.80;9.90;;;;;;5110710;27;34378;-78
2022/08/01 02:16:28;;;;;;;1.10;0.70;;;17.80;11.90;;;;;;5101811;28;34519;-77
2022/08/01 02:18:55;;;;;;;1.55;0.50;;;17.70;10.30;;;;;;5067893;28;36767;-79
2022/08/01 02:21:29;;;;;;;0.75;0.50;;;17.70;10.10;;;;;;5124673;27;34102;-77
2022/08/01 02:24:14;;;;;;;0.63;0.55;;;17.70;11.40;;;;;;5138437;27;34278;-77
2022/08/01 02:26:46;;;;;;;1.42;0.60;;;17.60;10.90;;;;;;5105724;27;34090;-77
2022/08/01 02:29:19;;;;;;;0.45;0.45;;;17.70;10.70;;;;;;5112112;27;35779;-77
2022/08/01 02:31:46;;;;;;;0.68;0.50;;;17.50;10.70;;;;;;5101882;27;34238;-77
2022/08/01 02:34:17;;;;;;;0.60;0.47;;;17.60;10.30;;;;;;5075061;28;34216;-77
2022/08/01 02:36:45;;;;;;;1.58;0.60;;;17.50;10.70;;;;;;5139004;27;34229;-77
2022/08/01 02:39:14;;;;;;;0.57;0.52;;;17.50;10.60;;;;;;5087597;28;35771;-77
2022/08/01 02:41:43;;;;;;;0.57;0.57;;;17.50;10.70;;;;;;5113292;27;34407;-77
2022/08/01 02:44:15;;;;;;;1.90;0.60;;;17.40;10.70;;;;;;5094038;28;34243;-77
2022/08/01 02:46:48;;;;;;;0.95;0.52;;;17.40;10.80;;;;;;5086319;28;34039;-78
2022/08/01 02:49:16;;;;;;;0.55;0.55;;;17.40;11.20;;;;;;5088132;28;35336;-77
2022/08/01 02:51:44;;;;;;;0.90;0.73;;;17.30;10.80;;;;;;5069559;28;34192;-77
2022/08/01 02:54:11;;;;;;;0.88;0.80;;;17.30;10.90;;;;;;5087565;27;34247;-77
2022/08/01 02:56:39;;;;;;;0.50;0.50;;;17.30;10.90;;;;;;5118621;27;34963;-78
2022/08/01 02:59:09;;;;;;;0.90;0.70;;;17.30;10.90;;;;;;5107338;27;36818;-78
2022/08/01 03:01:36;;;;;;;1.02;0.70;;;17.20;11.10;;;;;;5118810;27;34295;-77
2022/08/01 03:04:05;;;;;;;1.40;0.50;;;17.20;11.00;;;;;;5121282;27;34091;-77
2022/08/01 03:06:32;;;;;;;0.85;0.52;;;17.20;11.30;;;;;;5084267;28;34551;-77
2022/08/01 03:09:00;;;;;;;0.90;0.50;;;17.10;11.20;;;;;;5083597;28;36107;-77
2022/08/01 03:11:28;;;;;;;0.50;0.50;;;17.10;11.30;;;;;;5084103;28;34364;-77
2022/08/01 03:13:56;;;;;;;2.10;0.68;;;17.10;11.30;;;;;;5087585;28;34194;-77
2022/08/01 03:16:26;;;;;;;2.05;0.60;;;17.10;11.50;;;;;;5109169;27;34112;-77
2022/08/01 03:18:55;;;;;;;0.57;0.50;;;17.10;11.70;;;;;;5104944;27;34281;-77
2022/08/01 03:21:23;;;;;;;0.50;0.50;;;17.00;11.40;;;;;;5105226;28;34468;-77
2022/08/01 03:23:56;;;;;;;1.10;0.60;;;17.00;11.50;;;;;;5104546;27;34138;-77
2022/08/01 03:26:28;;;;;;;0.85;0.60;;;17.00;11.50;;;;;;5099895;28;34439;-77
2022/08/01 03:28:58;;;;;;;0.50;0.50;;;17.00;11.60;;;;;;5129643;27;35673;-77
2022/08/01 03:31:26;;;;;;;0.57;0.55;;;16.90;11.80;;;;;;5124184;27;34183;-78
2022/08/01 03:33:53;;;;;;;0.65;0.60;;;16.90;11.60;;;;;;5119552;27;34186;-78
2022/08/01 03:36:24;;;;;;;0.85;0.80;;;16.90;11.50;;;;;;5116166;27;34540;-77
2022/08/01 03:38:52;;;;;;;0.57;0.57;;;16.80;12.00;;;;;;5089039;27;35627;-77
2022/08/01 03:41:21;;;;;;;0.93;0.65;;;16.80;11.60;;;;;;5093556;28;34159;-77
2022/08/01 03:43:56;;;;;;;0.60;0.60;;;16.80;12.00;;;;;;5103980;27;34075;-77
2022/08/01 03:46:33;;;;;;;0.85;0.65;;;16.70;12.90;;;;;;5103873;27;34485;-77
2022/08/01 03:49:05;;;;;;;1.10;0.70;;;16.70;12.80;;;;;;5086862;27;35712;-78
2022/08/01 03:51:32;;;;;;;1.80;0.63;;;16.70;12.10;;;;;;5138190;27;34078;-77
2022/08/01 03:54:00;;;;;;;2.05;0.63;;;16.70;11.70;;;;;;5107135;27;34256;-77
2022/08/01 03:56:31;;;;;;;0.95;0.55;;;16.70;11.90;;;;;;5095228;28;34119;-78
2022/08/01 03:58:59;;;;;;;1.17;0.68;;;16.70;12.00;;;;;;5103327;28;36580;-77
2022/08/01 04:01:26;;;;;;;0.98;0.60;;;16.70;12.00;;;;;;5121133;27;34195;-77
2022/08/01 04:03:53;;;;;;;0.57;0.57;;;16.70;11.90;;;;;;5105600;27;34452;-77
2022/08/01 04:06:19;;;;;;;0.70;0.60;;;16.70;12.00;;;;;;5124651;27;34250;-77
2022/08/01 04:08:55;;;;;;;0.57;0.57;;;16.70;12.00;;;;;;5107122;27;35575;-77
2022/08/01 04:11:23;;;;;;;0.55;0.55;;;16.70;12.10;;;;;;5125587;27;34192;-78
2022/08/01 04:13:50;;;;;;;0.60;0.60;;;16.70;12.10;;;;;;5124304;27;34423;-77
2022/08/01 04:16:16;;;;;;;0.60;0.60;;;16.70;12.10;;;;;;5116487;27;34294;-77
2022/08/01 04:18:42;;;;;;;1.02;0.45;;;16.70;12.10;;;;;;5096844;27;36450;-77
2022/08/01 04:21:08;;;;;;;0.75;0.70;;;16.70;12.10;;;;;;5124276;27;34497;-78
2022/08/01 04:23:38;;;;;;;0.57;0.57;;;16.70;12.30;;;;;;5120203;27;34140;-78
2022/08/01 04:26:05;;;;;;;1.13;0.50;;;16.80;12.40;;;;;;5110222;27;34213;-78
2022/08/01 04:28:35;;;;;;;1.85;0.70;;;16.80;12.40;;;;;;5138135;27;36842;-78
2022/08/01 04:31:02;;;;;;;0.60;0.60;;;16.80;12.80;;;;;;5112549;27;34229;-78
2022/08/01 04:33:29;;;;;;;1.50;0.70;;;16.90;12.50;;;;;;5112988;27;34533;-78
2022/08/01 04:35:58;;;;;;;1.67;0.40;;;17.00;12.50;;;;;;5138368;27;34182;-77
2022/08/01 04:38:28;;;;;;;2.33;0.70;;;17.10;12.60;;;;;;5084040;28;36613;-78
2022/08/01 04:40:54;;;;;;;0.63;0.63;;;17.10;12.80;;;;;;5083977;28;34260;-78
2022/08/01 04:43:21;;;;;;;1.77;0.85;;;17.20;12.60;;;;;;5100136;28;34075;-78
2022/08/01 04:45:48;;;;;;;0.70;0.70;;;17.30;12.60;;;;;;5138478;27;34008;-78
2022/08/01 04:48:17;;;;;;;0.40;0.40;;;17.40;12.50;;;;;;5105195;27;34908;-78
2022/08/01 04:50:43;;;;;;;0.57;0.57;;;17.50;12.70;;;;;;5107540;27;34212;-77
2022/08/01 04:53:14;;;;;;;0.57;0.57;;;17.50;12.50;;;;;;5124159;27;34284;-77
2022/08/01 04:55:43;;;;;;;0.70;0.70;;;17.70;13.30;;;;;;5124666;27;34132;-78
2022/08/01 04:58:10;;;;;;;3.25;0.80;;;17.70;12.50;;;;;;5102391;28;35835;-77
2022/08/01 05:00:36;;;;;;;1.00;0.70;;;17.80;12.50;;;;;;5102671;27;34240;-78
2022/08/01 05:03:02;;;;;;;5.43;0.70;;;17.90;12.50;;;;;;5111472;27;34224;-78
2022/08/01 05:05:30;;;;;;;2.42;0.75;;;17.90;12.40;;;;;;5117814;27;34092;-78
2022/08/01 05:07:56;;;;;;;0.98;0.70;;;18.00;12.40;;;;;;5102777;28;36602;-78
2022/08/01 05:10:22;;;;;;;0.60;0.60;;;18.10;12.50;;;;;;5103363;28;34207;-77
2022/08/01 05:12:48;;;;;;;0.80;0.70;;;18.20;12.50;;;;;;5102964;28;34229;-78
2022/08/01 05:15:14;;;;;;;0.82;0.80;;;18.30;12.50;;;;;;5138795;27;34613;-78
2022/08/01 05:17:41;;;;;;;0.70;0.70;;;18.30;12.50;;;;;;5090248;28;36410;-78
2022/08/01 05:20:08;;;;;;;1.20;0.70;;;18.40;12.50;;;;;;5102407;27;34119;-78
2022/08/01 05:22:34;;;;;;;1.00;0.90;;;18.50;12.50;;;;;;5136244;27;34158;-78
2022/08/01 05:25:00;;;;;;;3.83;0.95;;;18.60;12.40;;;;;;5092925;27;34429;-78
2022/08/01 05:27:26;;;;;;;0.90;0.80;;;18.60;12.50;;;;;;5107579;27;35618;-78
2022/08/01 05:29:52;;;;;;;1.25;0.98;;;18.70;12.50;;;;;;5108374;28;34438;-78
2022/08/01 05:32:18;;;;;;;2.03;1.13;;;18.70;12.50;;;;;;5124579;27;34305;-79
2022/08/01 05:34:44;;;;;;;1.02;0.90;;;18.80;12.40;;;;;;5109229;28;34056;-78
2022/08/01 05:37:10;;;;;;;1.27;1.15;;;18.80;12.40;;;;;;5107037;28;34138;-78
2022/08/01 05:39:36;;;;;;;1.05;0.90;;;18.90;12.40;;;;;;5109074;28;34296;-78
2022/08/01 05:42:02;;;;;;;1.08;0.80;;;19.00;12.40;;;;;;5107217;28;34148;-78
2022/08/01 05:44:28;;;;;;;2.20;0.73;;;19.10;12.50;;;;;;5123526;27;34077;-78
2022/08/01 05:46:54;;;;;;;1.38;0.75;;;19.10;12.40;;;;;;5105693;27;35622;-78
2022/08/01 05:49:20;;;;;;;0.75;0.63;;;19.20;12.40;;;;;;5094688;27;34371;-78
2022/08/01 05:51:46;;;;;;;1.80;0.80;;;19.20;12.30;;;;;;5100990;27;34431;-78
2022/08/01 05:54:12;;;;;;;0.90;0.80;;;19.30;12.30;;;;;;5099970;27;34153;-78
2022/08/01 05:56:38;;;;;;;0.68;0.68;;;19.40;12.30;;;;;;5122627;27;35591;-78
2022/08/01 05:59:04;;;;;;;0.82;0.80;;;19.40;12.30;;;;;;5111225;27;34285;-78
2022/08/01 06:01:31;;;;;;;0.90;0.80;;;19.50;12.30;;;;;;5111630;27;34201;-78
2022/08/01 06:03:56;;;;;;;0.93;0.82;;;19.50;12.30;;;;;;5108658;27;34344;-78
2022/08/01 06:06:22;;;;;;;0.80;0.70;;;19.60;12.30;;;;;;5099471;28;36408;-78
2022/08/01 06:08:49;;;;;;;0.75;0.68;;;19.70;12.20;;;;;;5123822;27;34109;-78
2022/08/01 06:11:15;;;;;;;0.80;0.80;;;19.70;12.20;;;;;;5106634;27;34059;-78
2022/08/01 06:13:41;;;;;;;1.38;0.80;;;19.80;12.10;;;;;;5110926;27;34660;-78
2022/08/01 06:16:07;;;;;;;1.10;0.63;;;19.80;12.10;;;;;;5093662;27;35707;-78
2022/08/01 06:18:33;;;;;;;0.68;0.68;;;19.90;12.20;;;;;;5113894;27;34284;-78
2022/08/01 06:20:59;;;;;;;1.25;0.80;;;20.00;12.10;;;;;;5102653;28;34379;-78
2022/08/01 06:23:25;;;;;;;0.60;0.60;;;20.00;12.00;;;;;;5106634;27;34387;-78
2022/08/01 06:25:54;;;;;;;1.90;0.90;;;20.10;12.10;;;;;;5106038;27;36041;-78
2022/08/01 06:28:20;;;;;;;1.85;0.85;;;20.10;12.20;;;;;;5107029;27;34435;-78
2022/08/01 06:30:46;;;;;;;0.80;0.70;;;20.20;12.10;;;;;;5108362;27;34385;-78
2022/08/01 06:33:12;;;;;;;1.92;0.90;;;20.20;12.00;;;;;;5113777;27;34231;-78
2022/08/01 06:35:38;;;;;;;1.50;0.80;;;20.30;12.10;;;;;;5140045;27;35960;-79
2022/08/01 06:38:04;;;;;;;1.35;0.70;;;20.40;12.10;;;;;;5094360;27;34223;-78
2022/08/01 06:40:31;;;;;;;1.42;0.70;;;20.40;12.00;;;;;;5105801;27;34248;-79
2022/08/01 06:42:57;;;;;;;1.52;0.82;;;20.50;11.90;;;;;;5108074;27;34193;-78
2022/08/01 06:45:25;;;;;;;2.90;0.88;;;20.50;11.90;;;;;;5104440;27;36861;-78
2022/08/01 06:47:51;;;;;;;1.35;0.90;;;20.60;11.80;;;;;;5122597;27;34163;-78
2022/08/01 06:50:18;;;;;;;1.80;1.10;;;20.70;11.80;;;;;;5106491;27;34348;-78
2022/08/01 06:52:44;;;;;;;4.35;0.73;;;20.70;11.80;;;;;;5104562;27;34371;-79
2022/08/01 06:55:10;;;;;;;1.80;1.00;;;20.80;11.80;;;;;;5098763;28;35675;-79
2022/08/01 06:57:36;;;;;;;0.98;0.90;;;20.80;11.70;;;;;;5139706;27;34303;-78
2022/08/01 07:00:09;;;;;;;1.98;1.10;;;20.90;11.70;;;;;;5137982;27;34113;-78
2022/08/01 07:02:49;;;;;;;1.02;1.00;;;21.00;11.90;;;;;;5141063;27;34161;-78
2022/08/01 07:05:16;;;;;;;0.70;0.68;;;21.00;12.50;;;;;;5105613;28;35969;-78
2022/08/01 07:07:42;;;;;;;0.70;0.70;;;21.10;11.50;;;;;;5137152;27;34219;-78
2022/08/01 07:10:08;;;;;;;0.70;0.70;;;21.20;11.40;;;;;;5104701;27;34434;-78
2022/08/01 07:12:37;;;;;;;1.02;0.90;;;21.20;11.40;;;;;;5086453;28;34130;-78
2022/08/01 07:15:05;;;;;;;3.53;1.20;;;21.30;11.40;;;;;;5103411;27;36392;-79
2022/08/01 07:17:32;;;;;;;1.02;0.90;;;21.40;11.60;;;;;;5105666;27;34024;-78
2022/08/01 07:19:58;;;;;;;1.20;1.10;;;21.40;11.30;;;;;;5103932;28;34941;-78
2022/08/01 07:22:24;;;;;;;5.60;1.20;;;21.50;11.30;;;;;;5104870;27;35163;-77
2022/08/01 07:24:50;;;;;;;5.60;1.00;;;21.50;11.20;;;;;;5100615;28;34401;-79
2022/08/01 07:27:17;;;;;;;3.30;1.42;;;21.50;11.10;;;;;;5086347;28;34417;-78
2022/08/01 07:29:43;;;;;;;1.92;1.63;;;21.60;11.10;;;;;;5104704;28;34320;-78
2022/08/01 07:32:09;;;;;;;1.73;1.30;;;21.50;10.90;;;;;;5088021;28;34459;-78
2022/08/01 07:34:35;;;;;;;2.10;1.30;;;21.60;10.80;;;;;;5107293;27;36347;-78
2022/08/01 07:37:01;;;;;;;1.92;1.33;;;21.70;10.80;;;;;;5086829;28;34432;-78
2022/08/01 07:42:12;;;;;;;1.20;1.10;;;21.70;10.70;;;;;;5112314;27;34351;-78
2022/08/01 07:44:38;;;;;;;39.45;2.40;;;21.70;10.60;;;;;;5086969;28;36372;-79
2022/08/01 07:47:05;;;;;;;1.40;1.27;;;21.80;10.60;;;;;;5104164;28;34356;-78
2022/08/01 07:49:31;;;;;;;1.05;0.98;;;21.80;10.50;;;;;;5087650;28;34131;-78
2022/08/01 07:51:57;;;;;;;1.88;1.30;;;21.80;10.40;;;;;;5138460;27;34260;-78
2022/08/01 07:54:23;;;;;;;3.17;0.90;;;21.90;10.30;;;;;;5118260;27;35820;-79
2022/08/01 07:56:51;;;;;;;1.65;1.30;;;21.90;10.30;;;;;;5103636;28;34233;-78
2022/08/01 07:59:22;;;;;;;1.67;1.40;;;21.90;10.30;;;;;;5138251;27;34114;-78
2022/08/01 08:01:51;;;;;;;2.03;1.38;;;21.90;10.20;;;;;;5101242;28;34185;-79
2022/08/01 08:04:18;;;;;;;0.85;0.85;;;21.90;10.20;;;;;;5102966;27;36364;-78
2022/08/01 08:06:47;;;;;;;1.20;1.10;;;21.90;10.00;;;;;;5104238;27;34210;-78
2022/08/01 08:09:14;;;;;;;1.08;1.08;;;22.00;9.90;;;;;;5122294;27;34580;-79
2022/08/01 08:11:43;;;;;;;1.95;1.20;;;22.00;9.90;;;;;;5102604;28;34227;-79
2022/08/01 08:14:10;;;;;;;2.03;1.30;;;22.10;10.00;;;;;;5105309;27;35040;-78
2022/08/01 08:16:36;;;;;;;1.20;1.08;;;22.10;9.80;;;;;;5102950;28;34212;-78
2022/08/01 08:19:03;;;;;;;1.00;1.00;;;22.10;9.70;;;;;;5103358;27;34379;-79
2022/08/01 08:21:30;;;;;;;15.50;1.67;;;22.10;9.70;;;;;;5127981;27;35184;-78
2022/08/01 08:26:37;;;;;;;2.55;1.10;;;22.10;9.60;;;;;;5104056;28;34248;-78
2022/08/01 08:29:03;;;;;;;1.30;1.08;;;22.20;9.50;;;;;;5103360;28;34431;-78
2022/08/01 08:31:29;;;;;;;1.90;1.02;;;22.30;9.60;;;;;;5135097;27;34450;-78
2022/08/01 08:33:55;;;;;;;1.10;1.00;;;22.30;9.50;;;;;;5103423;28;35968;-78
2022/08/01 08:36:22;;;;;;;6.72;1.25;;;22.30;9.30;;;;;;5137913;27;34078;-79
2022/08/01 08:38:48;;;;;;;5.00;1.20;;;22.30;9.20;;;;;;5135745;27;34259;-79
2022/08/01 08:41:15;;;;;;;2.20;1.10;;;22.40;9.20;;;;;;5103608;27;34340;-78
2022/08/01 08:43:41;;;;;;;2.17;0.77;;;22.40;9.10;;;;;;5087316;28;35674;-78
2022/08/01 08:46:09;;;;;;;22.77;2.38;;;22.50;9.10;;;;;;5097761;28;34365;-79
2022/08/01 08:48:37;;;;;;;1.05;1.05;;;22.50;9.10;;;;;;5104893;28;34147;-78
2022/08/01 08:51:03;;;;;;;1.35;1.25;;;22.50;9.20;;;;;;5101496;28;34225;-78
2022/08/01 08:53:33;;;;;;;7.05;1.38;;;22.50;9.00;;;;;;5105347;27;36051;-79
2022/08/01 08:56:00;;;;;;;1.17;1.08;;;22.60;8.80;;;;;;5079115;28;34243;-78
2022/08/01 08:58:27;;;;;;;1.10;1.00;;;22.60;8.70;;;;;;5138343;27;34300;-78
2022/08/01 09:00:54;;;;;;;1.20;1.08;;;22.60;8.60;;;;;;5137115;27;34336;-78
2022/08/01 09:03:21;;;;;;;1.95;1.10;;;22.70;8.60;;;;;;5085513;28;36869;-78
2022/08/01 09:05:47;;;;;;;1.55;1.10;;;22.70;8.60;;;;;;5102939;28;34061;-79
2022/08/01 09:08:13;;;;;;;1.20;1.00;;;22.80;8.40;;;;;;5083342;28;34290;-78
2022/08/01 09:10:57;;;;;;;3.30;1.25;;;22.80;8.30;;;;;;5103192;28;34105;-78
2022/08/01 09:13:24;;;;;;;2.17;1.00;;;23.00;8.40;;;;;;5103441;28;35955;-78
2022/08/01 09:15:53;;;;;;;1.35;1.00;;;23.00;8.10;;;;;;5103004;28;34209;-78
2022/08/01 09:18:36;;;;;;;1.20;1.10;;;23.10;8.10;;;;;;5093127;27;34267;-78
2022/08/01 09:21:19;;;;;;;1.20;1.10;;;23.10;7.80;;;;;;5101180;27;34391;-77
2022/08/01 09:23:49;;;;;;;1.00;0.90;;;23.10;8.00;;;;;;5098704;27;35571;-78
2022/08/01 09:26:19;;;;;;;2.45;1.00;;;23.20;7.60;;;;;;5104099;28;34107;-79
2022/08/01 09:28:47;;;;;;;1.00;0.90;;;23.30;7.60;;;;;;5138366;27;34315;-80
2022/08/01 09:31:17;;;;;;;1.50;1.13;;;23.30;7.30;;;;;;5122183;27;34078;-80
2022/08/01 09:33:54;;;;;;;1.52;1.13;;;23.40;7.20;;;;;;5106398;28;34910;-78
2022/08/01 09:36:23;;;;;;;0.95;0.95;;;23.50;7.30;;;;;;5101429;27;34190;-77
2022/08/01 09:38:51;;;;;;;2.67;1.10;;;23.60;6.90;;;;;;5087511;27;34462;-78
2022/08/01 09:41:28;;;;;;;0.80;0.80;;;23.80;6.70;;;;;;5107291;27;34200;-80
2022/08/01 09:43:54;;;;;;;1.20;0.98;;;23.90;6.60;;;;;;5138891;27;35580;-78
2022/08/01 09:46:20;;;;;;;0.95;0.95;;;24.10;6.30;;;;;;5106381;28;34470;-79
2022/08/01 09:49:02;;;;;;;1.10;1.00;;;24.30;6.00;;;;;;5134117;27;34642;-78
2022/08/01 09:51:33;;;;;;;1.50;1.13;;;24.40;5.30;;;;;;5103065;28;34390;-78
2022/08/01 09:54:00;;;;;;;0.80;0.80;;;24.50;5.60;;;;;;5086142;28;35682;-79
2022/08/01 09:56:35;;;;;;;1.13;1.02;;;24.60;5.50;;;;;;5101302;27;34394;-79
2022/08/01 09:59:01;;;;;;;1.00;0.90;;;24.80;5.10;;;;;;5137150;27;34303;-79
2022/08/01 10:01:41;;;;;;;2.13;1.17;;;24.80;4.80;;;;;;5138421;27;34493;-79
2022/08/01 10:04:13;;;;;;;1.10;1.00;;;24.80;4.80;;;;;;5106873;27;35563;-78
2022/08/01 10:06:42;;;;;;;1.00;1.00;;;24.90;5.40;;;;;;5088196;28;34129;-77
2022/08/01 10:09:10;;;;;;;3.83;1.30;;;24.90;4.60;;;;;;5140199;27;34280;-78
2022/08/01 10:11:38;;;;;;;1.50;0.95;;;25.00;4.40;;;;;;5106535;28;34120;-79
2022/08/01 10:14:06;;;;;;;1.15;1.05;;;25.20;4.30;;;;;;5106236;28;35870;-78
2022/08/01 10:16:35;;;;;;;1.20;1.10;;;25.40;4.00;;;;;;5113882;27;34242;-78
2022/08/01 10:19:05;;;;;;;1.35;1.20;;;25.60;3.40;;;;;;5115748;27;34162;-80
2022/08/01 10:21:33;;;;;;;0.88;0.85;;;25.70;3.30;;;;;;5103486;28;34071;-79
2022/08/01 10:24:04;;;;;;;1.23;1.10;;;25.70;2.90;;;;;;5089197;28;36022;-79
2022/08/01 10:26:33;;;;;;;1.00;1.00;;;25.80;2.50;;;;;;5142586;27;34149;-78
2022/08/01 10:29:00;;;;;;;1.10;1.10;;;25.80;2.60;;;;;;5115751;27;34111;-78
2022/08/01 10:31:30;;;;;;;1.25;1.10;;;26.00;3.30;;;;;;5139406;27;34202;-78
2022/08/01 10:33:58;;;;;;;1.42;0.98;;;26.20;2.30;;;;;;5106431;28;35582;-79
2022/08/01 10:36:25;;;;;;;0.82;0.82;;;26.30;1.70;;;;;;5103903;28;34032;-78
2022/08/01 10:38:53;;;;;;;0.80;0.80;;;26.50;1.50;;;;;;5119644;27;34141;-79
2022/08/01 10:41:20;;;;;;;1.30;0.95;;;26.60;1.40;;;;;;5124643;27;34169;-80
2022/08/01 10:43:47;;;;;;;1.67;0.98;;;26.70;1.20;;;;;;5136531;27;35614;-79
2022/08/01 10:46:19;;;;;;;0.95;0.85;;;26.80;1.00;;;;;;5107129;28;34385;-80
2022/08/01 10:48:56;;;;;;;1.30;1.00;;;27.00;1.00;;;;;;5109638;27;34189;-78
2022/08/01 10:51:23;;;;;;;0.95;0.90;;;27.00;1.00;;;;;;5142758;27;34462;-78
2022/08/01 10:53:53;;;;;;;0.88;0.88;;;26.90;1.00;;;;;;5105114;28;36419;-77
2022/08/01 10:56:20;;;;;;;1.00;1.00;;;26.80;1.00;;;;;;5108779;27;34304;-79
2022/08/01 10:58:50;;;;;;;1.20;1.00;;;26.70;1.00;;;;;;5144476;27;34275;-80
2022/08/01 11:01:21;;;;;;;0.85;0.85;;;26.60;1.00;;;;;;5091875;28;34691;-78
2022/08/01 11:04:05;;;;;;;1.10;1.00;;;26.60;1.00;;;;;;5104940;27;36513;-78
2022/08/01 11:07:02;;;;;;;2.67;0.90;;;26.70;1.00;;;;;;5103898;27;34160;-80
2022/08/01 11:09:31;;;;;;;0.82;0.82;;;26.60;1.00;;;;;;5104977;28;34396;-78
2022/08/01 11:12:04;;;;;;;1.30;1.00;;;26.40;1.00;;;;;;5123860;27;34464;-78
2022/08/01 11:14:31;;;;;;;1.83;1.13;;;26.30;1.00;;;;;;5140571;27;36325;-78
2022/08/01 11:17:33;;;;;;;0.85;0.85;;;26.30;1.00;;;;;;5141003;27;34503;-78
2022/08/01 11:20:10;;;;;;;2.38;1.42;;;26.10;1.00;;;;;;5107471;27;34461;-78
2022/08/01 11:28:19;;;;;;;0.80;0.80;;;26.00;1.20;;;;;;5118940;27;56741;-80
2022/08/01 11:30:47;;;;;;;1.08;0.98;;;26.10;1.00;;;;;;5091203;27;33798;-79
2022/08/01 11:33:15;;;;;;;1.80;0.90;;;26.20;1.00;;;;;;5092986;28;34108;-78
2022/08/01 11:36:16;;;;;;;3.05;0.90;;;26.30;1.00;;;;;;5097336;28;34250;-78
2022/08/01 11:38:47;;;;;;;1.60;0.90;;;26.40;1.00;;;;;;5087934;28;34153;-78
2022/08/01 11:41:30;;;;;;;1.90;1.20;;;26.50;1.00;;;;;;5102752;28;33819;-78
2022/08/01 11:44:05;;;;;;;1.45;0.95;;;26.70;1.00;;;;;;5061268;28;33871;-79
2022/08/01 11:46:48;;;;;;;0.80;0.80;;;26.90;1.00;;;;;;5069103;28;35786;-77
2022/08/01 11:49:54;;;;;;;1.90;0.90;;;27.00;1.00;;;;;;5056757;28;34082;-78
2022/08/01 11:52:31;;;;;;;1.08;1.00;;;27.20;1.00;;;;;;5068556;28;34386;-79
2022/08/01 11:55:06;;;;;;;1.42;1.00;;;27.50;1.00;;;;;;5068624;28;34319;-79
2022/08/01 11:57:35;;;;;;;0.98;0.95;;;27.70;1.00;;;;;;5102754;28;36691;-79
2022/08/01 12:00:10;;;;;;;1.00;0.90;;;27.90;1.00;;;;;;5087465;28;34080;-79
2022/08/01 12:02:36;;;;;;;0.95;0.90;;;28.00;1.00;;;;;;5095902;28;34130;-78
2022/08/01 12:05:09;;;;;;;1.75;1.10;;;28.10;1.00;;;;;;5053730;28;34139;-79
2022/08/01 12:07:36;;;;;;;2.53;0.90;;;28.20;1.00;;;;;;5070025;28;34391;-80
2022/08/01 12:10:06;;;;;;;1.55;0.93;;;28.30;1.00;;;;;;5084476;28;34608;-80
2022/08/01 12:12:34;;;;;;;1.33;0.85;;;28.30;1.00;;;;;;5085140;28;34154;-79
2022/08/01 12:15:03;;;;;;;1.33;1.00;;;28.40;1.00;;;;;;5101924;28;34291;-78
2022/08/01 12:17:32;;;;;;;3.72;1.10;;;28.40;1.00;;;;;;5080509;28;35058;-79
2022/08/01 12:19:58;;;;;;;0.82;0.77;;;28.70;1.00;;;;;;5101763;28;34190;-78
2022/08/01 12:22:25;;;;;;;1.90;1.10;;;28.80;1.00;;;;;;5101609;28;34111;-79
2022/08/01 12:24:52;;;;;;;3.50;1.02;;;28.80;1.00;;;;;;5098741;28;34136;-79
2022/08/01 12:27:28;;;;;;;0.80;0.80;;;29.00;1.00;;;;;;5067076;28;36574;-80
2022/08/01 12:29:55;;;;;;;1.63;1.00;;;29.00;1.00;;;;;;5096845;28;34365;-79
2022/08/01 12:32:26;;;;;;;0.95;0.80;;;29.10;1.00;;;;;;5086281;28;34349;-80
2022/08/01 12:34:55;;;;;;;0.90;0.90;;;29.00;1.00;;;;;;5101541;28;34078;-78
2022/08/01 12:37:23;;;;;;;1.20;0.98;;;29.00;1.00;;;;;;5100714;28;35144;-79
2022/08/01 12:39:49;;;;;;;0.90;0.90;;;29.10;1.00;;;;;;5103106;28;34220;-78
2022/08/01 12:42:15;;;;;;;1.25;0.90;;;29.10;1.00;;;;;;5080370;28;34174;-78
2022/08/01 12:44:47;;;;;;;0.80;0.80;;;29.20;1.00;;;;;;5093324;28;34139;-82
2022/08/01 12:47:14;;;;;;;61.88;3.28;;;29.20;1.00;;;;;;5078324;28;35942;-82
2022/08/01 12:49:44;;;;;;;2.85;1.00;;;29.20;1.00;;;;;;5100394;28;34257;-77
2022/08/01 12:52:11;;;;;;;1.92;0.95;;;29.30;1.00;;;;;;5065328;28;34443;-79
2022/08/01 12:55:02;;;;;;;1.75;0.90;;;29.30;1.00;;;;;;5085064;28;34073;-78
2022/08/01 12:57:31;;;;;;;0.88;0.88;;;29.20;1.00;;;;;;5071993;28;35936;-77
2022/08/01 13:00:14;;;;;;;0.77;0.77;;;29.20;1.00;;;;;;5069235;28;34370;-79
2022/08/01 13:02:44;;;;;;;0.80;0.80;;;29.30;1.00;;;;;;5100575;28;34150;-79
2022/08/01 13:05:11;;;;;;;0.75;0.75;;;29.40;1.00;;;;;;5103766;27;34186;-79
2022/08/01 13:07:40;;;;;;;0.88;0.70;;;29.40;1.00;;;;;;5092904;28;34397;-80
2022/08/01 13:10:07;;;;;;;2.13;0.90;;;29.40;1.00;;;;;;5068571;28;34250;-80
2022/08/01 13:12:34;;;;;;;2.85;1.00;;;29.30;1.00;;;;;;5069872;28;34351;-78
2022/08/01 13:15:15;;;;;;;1.45;0.73;;;29.30;1.00;;;;;;5068696;28;34468;-79